createdAt,value
2022-09-22T00:00:05.856Z,100677.69
2022-09-22T00:03:18.428Z,100676.63
2022-09-22T00:06:12.358Z,100675.14
2022-09-22T00:09:05.879Z,100672.86
2022-09-22T00:11:58.066Z,100677.73
2022-09-22T00:14:50.437Z,100675.45
2022-09-22T00:17:43.334Z,100674.98
2022-09-22T00:20:35.287Z,100673.70
2022-09-22T00:23:30.081Z,100668.96
2022-09-22T00:26:24.156Z,100671.14
2022-09-22T00:29:17.477Z,100674.37
2022-09-22T00:32:09.645Z,100671.44
2022-09-22T00:35:02.207Z,100671.97
2022-09-22T00:37:54.425Z,100671.70
2022-09-22T00:40:47.259Z,100666.11
2022-09-22T00:43:40.638Z,100661.17
2022-09-22T00:46:32.885Z,100654.59
2022-09-22T00:49:31.244Z,100656.80
2022-09-22T00:52:27.935Z,100659.17
2022-09-22T00:55:26.227Z,100653.39
2022-09-22T00:58:20.899Z,100658.05
2022-09-22T01:01:12.891Z,100659.42
2022-09-22T01:04:06.069Z,100660.78
2022-09-22T01:07:01.076Z,100663.16
2022-09-22T01:09:53.700Z,100668.01
2022-09-22T01:12:48.421Z,100656.92
2022-09-22T01:15:49.121Z,100669.09
2022-09-22T01:18:50.694Z,100663.30
2022-09-22T01:21:51.847Z,100670.80
2022-09-22T01:25:15.825Z,100676.47
2022-09-22T01:28:32.992Z,100667.38
2022-09-22T01:31:33.731Z,100673.04
2022-09-22T01:34:34.101Z,100672.59
2022-09-22T01:37:34.540Z,100668.00
2022-09-22T01:40:32.943Z,100671.00
2022-09-22T01:43:34.369Z,100663.41
2022-09-22T01:46:31.764Z,100663.77
2022-09-22T01:49:25.666Z,100669.58
2022-09-22T01:52:22.529Z,100662.81
2022-09-22T01:55:18.314Z,100669.44
2022-09-22T01:58:14.119Z,100667.14
2022-09-22T02:01:13.774Z,100671.14
2022-09-22T02:04:11.251Z,100676.48
2022-09-22T02:07:06.568Z,100686.29
2022-09-22T02:10:00.197Z,100683.34
2022-09-22T02:12:53.320Z,100688.98
2022-09-22T02:16:02.082Z,100691.32
2022-09-22T02:19:06.247Z,100696.16
2022-09-22T02:22:05.659Z,100693.20
2022-09-22T02:24:57.767Z,100696.19
2022-09-22T02:27:51.693Z,100692.86
2022-09-22T02:30:59.052Z,100692.55
2022-09-22T02:33:58.342Z,100695.73
2022-09-22T02:36:58.044Z,100687.29
2022-09-22T02:39:58.472Z,100688.81
2022-09-22T02:42:54.715Z,100696.09
2022-09-22T02:45:55.193Z,100693.80
2022-09-22T02:48:52.490Z,100688.84
2022-09-22T02:51:46.916Z,100686.53
2022-09-22T02:54:39.564Z,100681.58
2022-09-22T02:57:31.345Z,100684.56
2022-09-22T03:00:23.960Z,100683.91
2022-09-22T03:03:16.841Z,100685.91
2022-09-22T03:06:09.747Z,100689.70
2022-09-22T03:09:02.133Z,100695.33
2022-09-22T03:11:54.413Z,100704.77
2022-09-22T03:14:47.204Z,100701.81
2022-09-22T03:17:41.730Z,100704.79
2022-09-22T03:20:33.933Z,100706.12
2022-09-22T03:23:25.772Z,100700.17
2022-09-22T03:26:18.418Z,100700.50
2022-09-22T03:29:08.876Z,100703.30
2022-09-22T03:32:05.214Z,100706.28
2022-09-22T03:34:57.377Z,100701.32
2022-09-22T03:37:50.661Z,100705.95
2022-09-22T03:40:42.504Z,100708.92
2022-09-22T03:43:34.301Z,100702.32
2022-09-22T03:46:27.009Z,100702.50
2022-09-22T03:49:17.615Z,100701.99
2022-09-22T03:52:10.385Z,100702.33
2022-09-22T03:55:03.306Z,100699.02
2022-09-22T03:57:55.061Z,100702.17
2022-09-22T04:00:47.156Z,100699.86
2022-09-22T04:03:39.154Z,100710.58
2022-09-22T04:06:31.779Z,100704.64
2022-09-22T04:09:24.192Z,100706.80
2022-09-22T04:12:16.408Z,100710.58
2022-09-22T04:15:11.124Z,100714.39
2022-09-22T04:18:03.647Z,100718.69
2022-09-22T04:20:59.749Z,100713.55
2022-09-22T04:23:51.948Z,100714.54
2022-09-22T04:26:56.602Z,100720.81
2022-09-22T04:29:56.488Z,100713.73
2022-09-22T04:32:46.470Z,100710.24
2022-09-22T04:35:38.252Z,100705.80
2022-09-22T04:38:30.818Z,100711.56
2022-09-22T04:41:22.568Z,100714.38
2022-09-22T04:44:14.514Z,100714.38
2022-09-22T04:47:06.917Z,100711.73
2022-09-22T04:49:59.939Z,100709.09
2022-09-22T04:52:54.379Z,100706.28
2022-09-22T04:55:46.820Z,100708.77
2022-09-22T04:58:39.345Z,100699.20
2022-09-22T05:01:31.675Z,100706.12
2022-09-22T05:04:23.325Z,100702.50
2022-09-22T05:07:15.348Z,100698.86
2022-09-22T05:10:08.716Z,100707.45
2022-09-22T05:13:01.412Z,100705.30
2022-09-22T05:15:53.288Z,100699.53
2022-09-22T05:18:45.359Z,100704.30
2022-09-22T05:21:37.556Z,100707.28
2022-09-22T05:24:28.155Z,100701.52
2022-09-22T05:27:19.844Z,100706.29
2022-09-22T05:30:15.199Z,100713.55
2022-09-22T05:33:07.587Z,100713.73
2022-09-22T05:35:59.351Z,100719.34
2022-09-22T05:38:52.097Z,100716.84
2022-09-22T05:41:43.692Z,100722.30
2022-09-22T05:44:35.663Z,100724.09
2022-09-22T05:47:27.869Z,100725.92
2022-09-22T05:50:22.197Z,100723.59
2022-09-22T05:53:15.099Z,100718.28
2022-09-22T05:56:07.821Z,100721.72
2022-09-22T05:59:00.314Z,100719.05
2022-09-22T06:01:57.398Z,100716.37
2022-09-22T06:04:51.340Z,100719.67
2022-09-22T06:07:43.591Z,100728.88
2022-09-22T06:10:34.664Z,100723.36
2022-09-22T06:13:26.825Z,100722.33
2022-09-22T06:16:18.119Z,100729.72
2022-09-22T06:19:10.781Z,100724.70
2022-09-22T06:22:03.186Z,100722.10
2022-09-22T06:24:55.007Z,100723.17
2022-09-22T06:27:47.854Z,100730.16
2022-09-22T06:30:41.157Z,100728.02
2022-09-22T06:33:33.476Z,100730.52
2022-09-22T06:36:31.705Z,100731.00
2022-09-22T06:39:24.116Z,100723.97
2022-09-22T06:42:17.629Z,100730.38
2022-09-22T06:45:12.834Z,100728.78
2022-09-22T06:48:10.243Z,100736.33
2022-09-22T06:51:02.775Z,100737.78
2022-09-22T06:53:55.539Z,100739.39
2022-09-22T06:56:48.150Z,100732.00
2022-09-22T06:59:39.397Z,100728.48
2022-09-22T07:02:32.172Z,100731.70
2022-09-22T07:05:23.868Z,100732.22
2022-09-22T07:08:16.068Z,100729.08
2022-09-22T07:11:11.333Z,100734.72
2022-09-22T07:14:04.470Z,100731.52
2022-09-22T07:16:56.297Z,100733.69
2022-09-22T07:19:48.497Z,100733.52
2022-09-22T07:22:39.974Z,100736.04
2022-09-22T07:25:36.072Z,100738.92
2022-09-22T07:28:29.306Z,100741.84
2022-09-22T07:31:27.799Z,100746.36
2022-09-22T07:34:21.392Z,100745.34
2022-09-22T07:37:15.665Z,100735.52
2022-09-22T07:40:12.180Z,100740.84
2022-09-22T07:43:04.651Z,100734.69
2022-09-22T07:45:58.213Z,100733.87
2022-09-22T07:48:50.400Z,100730.98
2022-09-22T07:51:44.025Z,100734.23
2022-09-22T07:54:37.066Z,100731.89
2022-09-22T07:57:33.837Z,100735.91
2022-09-22T08:00:27.147Z,100732.73
2022-09-22T08:03:19.319Z,100730.95
2022-09-22T08:06:12.638Z,100734.75
2022-09-22T08:09:07.265Z,100730.66
2022-09-22T08:12:00.135Z,100731.66
2022-09-22T08:14:53.806Z,100734.97
2022-09-22T08:17:46.441Z,100723.66
2022-09-22T08:20:41.709Z,100723.34
2022-09-22T08:23:37.676Z,100732.05
2022-09-22T08:26:29.808Z,100727.57
2022-09-22T08:29:24.686Z,100717.12
2022-09-22T08:32:17.632Z,100717.16
2022-09-22T08:35:12.146Z,100714.53
2022-09-22T08:38:03.972Z,100711.86
2022-09-22T08:41:20.671Z,100713.09
2022-09-22T08:44:26.230Z,100712.63
2022-09-22T08:47:42.943Z,100711.86
2022-09-22T08:50:56.479Z,100704.04
2022-09-22T08:53:51.776Z,100692.26
2022-09-22T08:56:48.005Z,100700.08
2022-09-22T08:59:44.956Z,100701.47
2022-09-22T09:02:43.633Z,100685.66
2022-09-22T09:06:05.068Z,100688.19
2022-09-22T09:09:28.132Z,100686.98
2022-09-22T09:12:41.576Z,100681.63
2022-09-22T09:15:42.699Z,100680.52
2022-09-22T09:18:39.453Z,100679.07
2022-09-22T09:21:34.323Z,100676.81
2022-09-22T09:27:51.114Z,100675.84
2022-09-22T09:30:49.854Z,100674.52
2022-09-22T09:33:54.295Z,100671.34
2022-09-22T09:36:52.851Z,100676.23
2022-09-22T09:39:47.093Z,100666.12
2022-09-22T09:42:39.313Z,100667.91
2022-09-22T09:45:38.190Z,100669.49
2022-09-22T09:48:40.514Z,100664.48
2022-09-22T09:51:39.959Z,100664.14
2022-09-22T09:54:32.732Z,100663.84
2022-09-22T09:57:28.558Z,100661.84
2022-09-22T10:00:33.995Z,100660.90
2022-09-22T10:03:30.801Z,100662.14
2022-09-22T10:06:26.926Z,100653.19
2022-09-22T10:09:29.946Z,100658.69
2022-09-22T10:12:28.594Z,100656.60
2022-09-22T10:15:28.174Z,100660.42
2022-09-22T10:18:35.125Z,100662.88
2022-09-22T10:21:28.838Z,100661.48
2022-09-22T10:24:32.893Z,100656.60
2022-09-22T10:27:26.492Z,100656.81
2022-09-22T10:30:28.068Z,100652.67
2022-09-22T10:33:19.859Z,100647.73
2022-09-22T10:36:13.406Z,100643.83
2022-09-22T10:39:18.875Z,100648.61
2022-09-22T10:46:44.361Z,100636.63
2022-09-22T10:49:50.275Z,100639.33
2022-09-22T10:52:51.725Z,100636.07
2022-09-22T10:55:54.610Z,100638.27
2022-09-22T10:59:23.673Z,100630.50
2022-09-22T11:02:44.007Z,100640.02
2022-09-22T11:06:05.939Z,100635.59
2022-09-22T11:09:22.957Z,100630.03
2022-09-22T11:12:29.322Z,100619.34
2022-09-22T11:15:40.510Z,100622.12
2022-09-22T11:18:53.326Z,100624.41
2022-09-22T11:21:57.528Z,100615.03
2022-09-22T11:25:06.264Z,100605.39
2022-09-22T11:28:11.202Z,100608.68
2022-09-22T11:31:03.771Z,100613.84
2022-09-22T11:34:23.526Z,100602.55
2022-09-22T11:37:29.685Z,100599.64
2022-09-22T11:40:37.911Z,100599.12
2022-09-22T11:43:44.880Z,100597.77
2022-09-22T11:46:47.551Z,100598.62
2022-09-22T11:49:56.592Z,100597.55
2022-09-22T11:53:07.553Z,100592.20
2022-09-22T11:56:15.817Z,100583.33
2022-09-22T11:59:27.483Z,100573.67
2022-09-22T12:02:28.762Z,100576.11
2022-09-22T12:05:22.331Z,100563.70
2022-09-22T12:08:18.920Z,100580.72
2022-09-22T12:11:17.206Z,100582.06
2022-09-22T12:14:14.603Z,100574.23
2022-09-22T12:17:13.597Z,100574.22
2022-09-22T12:20:17.877Z,100574.99
2022-09-22T12:23:32.029Z,100574.67
2022-09-22T12:26:32.809Z,100579.78
2022-09-22T12:29:30.564Z,100586.20
2022-09-22T12:32:29.680Z,100576.63
2022-09-22T12:35:30.938Z,100579.50
2022-09-22T12:38:25.192Z,100581.57
2022-09-22T12:41:21.464Z,100583.84
2022-09-22T12:44:21.175Z,100581.42
2022-09-22T12:47:34.733Z,100582.20
2022-09-22T12:50:46.293Z,100582.36
2022-09-22T12:53:43.092Z,100574.30
2022-09-22T12:57:02.196Z,100577.09
2022-09-22T13:00:32.824Z,100572.03
2022-09-22T13:03:49.895Z,100571.39
2022-09-22T13:06:58.631Z,100570.02
2022-09-22T13:10:11.234Z,100566.92
2022-09-22T13:13:23.751Z,100565.70
2022-09-22T13:16:38.858Z,100564.98
2022-09-22T13:19:31.157Z,100559.52
2022-09-22T13:22:21.613Z,100561.79
2022-09-22T13:25:25.499Z,100568.49
2022-09-22T13:28:20.265Z,100563.11
2022-09-22T13:31:17.074Z,100557.39
2022-09-22T13:34:29.423Z,100560.83
2022-09-22T13:37:24.104Z,100560.17
2022-09-22T13:40:16.527Z,100563.09
2022-09-22T13:43:12.356Z,100564.41
2022-09-22T13:46:06.187Z,100561.63
2022-09-22T13:49:00.176Z,100563.40
2022-09-22T13:51:58.463Z,100565.52
2022-09-22T13:54:54.113Z,100562.00
2022-09-22T13:57:47.156Z,100563.86
2022-09-22T14:01:11.602Z,100566.23
2022-09-22T14:04:00.930Z,100572.41
2022-09-22T14:06:55.749Z,100563.77
2022-09-22T14:09:49.180Z,100568.56
2022-09-22T14:12:42.790Z,100569.05
2022-09-22T14:15:51.579Z,100574.78
2022-09-22T14:18:47.385Z,100578.12
2022-09-22T14:21:51.101Z,100567.98
2022-09-22T14:24:49.590Z,100568.30
2022-09-22T14:27:49.785Z,100563.28
2022-09-22T14:30:42.461Z,100559.22
2022-09-22T14:33:35.332Z,100565.97
2022-09-22T14:36:28.383Z,100563.40
2022-09-22T14:39:31.215Z,100560.23
2022-09-22T14:42:29.190Z,100557.39
2022-09-22T14:45:23.653Z,100565.29
2022-09-22T14:48:21.601Z,100565.64
2022-09-22T14:51:20.681Z,100566.44
2022-09-22T14:54:18.930Z,100572.65
2022-09-22T14:57:16.537Z,100567.35
2022-09-22T15:00:36.506Z,100566.37
2022-09-22T15:03:31.176Z,100565.13
2022-09-22T15:06:23.355Z,100568.97
2022-09-22T15:09:25.444Z,100569.30
2022-09-22T15:12:36.626Z,100567.98
2022-09-22T15:15:30.831Z,100566.92
2022-09-22T15:18:25.387Z,100569.95
2022-09-22T15:21:22.523Z,100567.27
2022-09-22T15:24:15.646Z,100570.78
2022-09-22T15:27:17.851Z,100576.73
2022-09-22T15:30:16.444Z,100579.66
2022-09-22T15:33:10.346Z,100573.94
2022-09-22T15:36:12.892Z,100577.38
2022-09-22T15:39:16.085Z,100579.42
2022-09-22T15:42:11.427Z,100586.58
2022-09-22T15:45:04.869Z,100588.04
2022-09-22T15:47:58.502Z,100591.70
2022-09-22T15:50:51.576Z,100586.50
2022-09-22T15:53:43.835Z,100583.46
2022-09-22T15:56:36.465Z,100583.72
2022-09-22T15:59:32.814Z,100588.75
2022-09-22T16:02:28.723Z,100591.92
2022-09-22T16:05:20.751Z,100591.00
2022-09-22T16:08:18.106Z,100594.40
2022-09-22T16:11:12.961Z,100595.14
2022-09-22T16:14:06.272Z,100599.59
2022-09-22T16:16:58.078Z,100603.81
2022-09-22T16:19:50.544Z,100600.22
2022-09-22T16:22:40.729Z,100601.98
2022-09-22T16:25:32.762Z,100606.94
2022-09-22T16:28:25.208Z,100611.16
2022-09-22T16:31:19.375Z,100611.27
2022-09-22T16:34:12.767Z,100621.59
2022-09-22T16:37:05.192Z,100618.10
2022-09-22T16:39:58.049Z,100622.42
2022-09-22T16:42:50.382Z,100631.89
2022-09-22T16:45:59.746Z,100640.73
2022-09-22T16:48:52.449Z,100646.57
2022-09-22T16:51:47.115Z,100655.05
2022-09-22T16:54:39.224Z,100653.04
2022-09-22T16:57:31.113Z,100657.55
2022-09-22T17:00:23.081Z,100648.52
2022-09-22T17:03:15.542Z,100651.98
2022-09-22T17:06:08.896Z,100655.28
2022-09-22T17:09:01.553Z,100658.70
2022-09-22T17:11:53.802Z,100650.58
2022-09-22T17:14:49.048Z,100650.08
2022-09-22T17:17:41.796Z,100659.45
2022-09-22T17:20:33.928Z,100658.55
2022-09-22T17:23:26.112Z,100663.00
2022-09-22T17:26:19.148Z,100666.77
2022-09-22T17:29:11.251Z,100671.60
2022-09-22T17:32:02.829Z,100676.20
2022-09-22T17:34:55.185Z,100674.00
2022-09-22T17:37:47.797Z,100676.52
2022-09-22T17:40:42.517Z,100676.95
2022-09-22T17:43:35.094Z,100681.70
2022-09-22T17:46:29.318Z,100685.64
2022-09-22T17:49:39.227Z,100693.06
2022-09-22T17:52:49.084Z,100694.11
2022-09-22T17:55:42.935Z,100693.12
2022-09-22T17:58:35.187Z,100707.14
2022-09-22T18:01:28.182Z,100709.27
2022-09-22T18:04:20.117Z,100705.41
2022-09-22T18:07:15.927Z,100698.04
2022-09-22T18:10:12.437Z,100702.61
2022-09-22T18:13:05.009Z,100700.55
2022-09-22T18:15:55.641Z,100701.21
2022-09-22T18:18:47.799Z,100708.21
2022-09-22T18:21:45.355Z,100707.22
2022-09-22T18:24:39.275Z,100700.86
2022-09-22T18:27:31.691Z,100720.41
2022-09-22T18:30:22.479Z,100717.59
2022-09-22T18:33:15.120Z,100711.03
2022-09-22T18:36:09.562Z,100707.55
2022-09-22T18:39:01.435Z,100710.86
2022-09-22T18:41:55.345Z,100712.09
2022-09-22T18:44:47.546Z,100711.89
2022-09-22T18:47:40.979Z,100709.86
2022-09-22T18:50:34.730Z,100706.77
2022-09-22T18:53:26.568Z,100714.55
2022-09-22T18:56:19.919Z,100717.02
2022-09-22T18:59:15.220Z,100720.11
2022-09-22T19:02:11.263Z,100718.27
2022-09-22T19:05:04.817Z,100718.06
2022-09-22T19:07:58.780Z,100715.99
2022-09-22T19:10:50.435Z,100716.62
2022-09-22T19:13:42.474Z,100715.17
2022-09-22T19:16:34.435Z,100722.97
2022-09-22T19:19:27.496Z,100722.58
2022-09-22T19:22:22.373Z,100723.39
2022-09-22T19:25:15.273Z,100728.30
2022-09-22T19:28:08.744Z,100731.78
2022-09-22T19:31:01.077Z,100732.41
2022-09-22T19:33:53.897Z,100735.66
2022-09-22T19:36:45.823Z,100742.64
2022-09-22T19:39:38.068Z,100737.09
2022-09-22T19:42:30.302Z,100748.97
2022-09-22T19:45:24.020Z,100749.59
2022-09-22T19:48:15.995Z,100737.69
2022-09-22T19:51:08.886Z,100731.91
2022-09-22T19:54:01.290Z,100731.52
2022-09-22T19:56:53.324Z,100728.63
2022-09-22T19:59:43.512Z,100733.52
2022-09-22T20:02:35.805Z,100728.59
2022-09-22T20:05:31.624Z,100736.80
2022-09-22T20:08:26.159Z,100742.31
2022-09-22T20:11:26.424Z,100757.50
2022-09-22T20:14:24.151Z,100767.53
2022-09-22T20:17:16.660Z,100770.20
2022-09-22T20:20:08.624Z,100768.55
2022-09-22T20:23:04.374Z,100767.30
2022-09-22T20:25:57.033Z,100768.33
2022-09-22T20:28:49.128Z,100771.17
2022-09-22T20:31:41.846Z,100769.34
2022-09-22T20:34:34.718Z,100767.48
2022-09-22T20:37:27.218Z,100777.34
2022-09-22T20:40:20.128Z,100780.19
2022-09-22T20:43:14.185Z,100794.12
2022-09-22T20:46:07.449Z,100789.18
2022-09-22T20:49:00.155Z,100796.55
2022-09-22T20:51:52.088Z,100788.95
2022-09-22T20:54:44.164Z,100793.80
2022-09-22T20:57:36.097Z,100793.17
2022-09-22T21:00:28.125Z,100792.38
2022-09-22T21:03:21.082Z,100790.52
2022-09-22T21:06:16.096Z,100792.16
2022-09-22T21:09:27.363Z,100791.98
2022-09-22T21:12:19.805Z,100793.44
2022-09-22T21:15:11.017Z,100789.97
2022-09-22T21:18:03.834Z,100784.64
2022-09-22T21:20:57.771Z,100780.95
2022-09-22T21:23:50.576Z,100783.63
2022-09-22T21:26:42.248Z,100780.56
2022-09-22T21:29:34.453Z,100781.38
2022-09-22T21:32:26.896Z,100782.21
2022-09-22T21:35:18.938Z,100781.19
2022-09-22T21:38:11.332Z,100777.06
2022-09-22T21:41:07.184Z,100771.11
2022-09-22T21:43:59.763Z,100771.11
2022-09-22T21:46:52.223Z,100771.95
2022-09-22T21:49:43.792Z,100762.31
2022-09-22T21:52:38.584Z,100763.33
2022-09-22T21:55:31.748Z,100759.17
2022-09-22T21:58:23.982Z,100751.39
2022-09-22T22:01:17.271Z,100755.26
2022-09-22T22:04:14.233Z,100756.88
2022-09-22T22:07:06.553Z,100750.30
2022-09-22T22:09:59.484Z,100748.03
2022-09-22T22:12:51.309Z,100743.09
2022-09-22T22:15:43.190Z,100740.83
2022-09-22T22:18:35.823Z,100735.27
2022-09-22T22:21:30.193Z,100736.86
2022-09-22T22:24:36.474Z,100728.45
2022-09-22T22:27:28.769Z,100723.70
2022-09-22T22:30:20.783Z,100725.94
2022-09-22T22:33:13.597Z,100722.83
2022-09-22T22:36:08.097Z,100723.43
2022-09-22T22:39:00.277Z,100718.50
2022-09-22T22:41:54.971Z,100729.70
2022-09-22T22:44:46.581Z,100726.62
2022-09-22T22:47:38.858Z,100722.50
2022-09-22T22:50:31.070Z,100723.91
2022-09-22T22:53:24.051Z,100723.48
2022-09-22T22:56:17.974Z,100723.87
2022-09-22T22:59:09.828Z,100726.28
2022-09-22T23:02:02.036Z,100728.31
2022-09-22T23:04:54.817Z,100736.67
2022-09-22T23:07:47.658Z,100737.87
2022-09-22T23:10:38.156Z,100743.77
2022-09-22T23:13:29.879Z,100738.20
2022-09-22T23:16:23.879Z,100743.45
2022-09-22T23:19:17.426Z,100750.16
2022-09-22T23:22:09.373Z,100744.59
2022-09-22T23:25:01.319Z,100749.48
2022-09-22T23:27:53.861Z,100752.14
2022-09-22T23:30:46.528Z,100745.98
2022-09-22T23:33:41.010Z,100742.31
2022-09-22T23:36:33.595Z,100746.81
2022-09-22T23:39:26.148Z,100748.46
2022-09-22T23:42:18.490Z,100751.93
2022-09-22T23:45:10.750Z,100752.77
2022-09-22T23:48:03.985Z,100749.27
2022-09-22T23:50:56.946Z,100752.77
2022-09-22T23:53:49.125Z,100753.58
2022-09-22T23:56:41.816Z,100747.45
2022-09-22T23:59:34.015Z,100741.13
